sensor_id;sensor_type;location;lat;lon;timestamp;temperature;humidity
2767;DHT22;1391;46.74287300;11.63683300;2023-12-07T01:42:21;-2.30;99.90
2767;DHT22;1391;46.74287300;11.63683300;2023-12-07T01:46:09;-2.60;99.90
2767;DHT22;1391;46.74287300;11.63683300;2023-12-07T01:50:33;-2.60;99.90
2767;DHT22;1391;46.74287300;11.63683300;2023-12-07T01:54:11;-2.40;99.90
2767;DHT22;1391;46.74287300;11.63683300;2023-12-07T01:56:40;-2.30;99.90
2767;DHT22;1391;46.74287300;11.63683300;2023-12-07T01:59:11;-1.70;99.90
2767;DHT22;1391;46.74287300;11.63683300;2023-12-07T02:09:40;-2.60;99.90
2767;DHT22;1391;46.74287300;11.63683300;2023-12-07T02:12:08;-2.50;99.90
2767;DHT22;1391;46.74287300;11.63683300;2023-12-07T02:14:38;-2.60;99.90
2767;DHT22;1391;46.74287300;11.63683300;2023-12-07T02:17:10;-2.40;99.90
2767;DHT22;1391;46.74287300;11.63683300;2023-12-07T02:19:57;-2.20;99.90
2767;DHT22;1391;46.74287300;11.63683300;2023-12-07T02:22:34;-2.30;99.90
2767;DHT22;1391;46.74287300;11.63683300;2023-12-07T02:25:07;-2.40;99.90
2767;DHT22;1391;46.74287300;11.63683300;2023-12-07T02:27:38;-2.20;99.90
2767;DHT22;1391;46.74287300;11.63683300;2023-12-07T02:30:07;-2.30;99.90
2767;DHT22;1391;46.74287300;11.63683300;2023-12-07T02:32:36;-2.40;99.90
2767;DHT22;1391;46.74287300;11.63683300;2023-12-07T02:35:04;-2.20;99.90
2767;DHT22;1391;46.74287300;11.63683300;2023-12-07T02:37:36;-2.20;99.90
2767;DHT22;1391;46.74287300;11.63683300;2023-12-07T02:40:08;-2.40;99.90
2767;DHT22;1391;46.74287300;11.63683300;2023-12-07T02:42:38;-2.30;99.90
2767;DHT22;1391;46.74287300;11.63683300;2023-12-07T02:45:07;-2.60;99.90
2767;DHT22;1391;46.74287300;11.63683300;2023-12-07T02:47:36;-2.60;99.90
2767;DHT22;1391;46.74287300;11.63683300;2023-12-07T02:50:06;-2.40;99.90
2767;DHT22;1391;46.74287300;11.63683300;2023-12-07T02:52:34;-2.30;99.90
2767;DHT22;1391;46.74287300;11.63683300;2023-12-07T02:55:02;-2.40;99.90
2767;DHT22;1391;46.74287300;11.63683300;2023-12-07T02:57:30;-2.20;99.90
2767;DHT22;1391;46.74287300;11.63683300;2023-12-07T03:00:00;-2.30;99.90
2767;DHT22;1391;46.74287300;11.63683300;2023-12-07T03:02:32;-2.40;99.90
2767;DHT22;1391;46.74287300;11.63683300;2023-12-07T03:05:00;-2.30;99.90
2767;DHT22;1391;46.74287300;11.63683300;2023-12-07T03:07:27;-2.30;99.90
2767;DHT22;1391;46.74287300;11.63683300;2023-12-07T03:09:55;-2.40;99.90
2767;DHT22;1391;46.74287300;11.63683300;2023-12-07T03:12:22;-2.20;99.90
2767;DHT22;1391;46.74287300;11.63683300;2023-12-07T03:14:49;-2.30;99.90
2767;DHT22;1391;46.74287300;11.63683300;2023-12-07T03:17:18;-2.40;99.90
2767;DHT22;1391;46.74287300;11.63683300;2023-12-07T03:19:46;-2.10;99.90
2767;DHT22;1391;46.74287300;11.63683300;2023-12-07T03:22:13;-2.10;99.90
2767;DHT22;1391;46.74287300;11.63683300;2023-12-07T03:24:45;-2.20;99.90
2767;DHT22;1391;46.74287300;11.63683300;2023-12-07T03:27:13;-2.40;99.90
2767;DHT22;1391;46.74287300;11.63683300;2023-12-07T03:29:40;-2.30;99.90
2767;DHT22;1391;46.74287300;11.63683300;2023-12-07T03:32:08;-2.60;99.90
2767;DHT22;1391;46.74287300;11.63683300;2023-12-07T03:34:37;-2.50;99.90
2767;DHT22;1391;46.74287300;11.63683300;2023-12-07T03:37:04;-2.60;99.90
2767;DHT22;1391;46.74287300;11.63683300;2023-12-07T03:39:32;-2.50;99.90
2767;DHT22;1391;46.74287300;11.63683300;2023-12-07T03:41:59;-2.60;99.90
2767;DHT22;1391;46.74287300;11.63683300;2023-12-07T03:44:27;-2.50;99.90
2767;DHT22;1391;46.74287300;11.63683300;2023-12-07T03:46:54;-2.40;99.90
2767;DHT22;1391;46.74287300;11.63683300;2023-12-07T03:49:22;-2.30;99.90
2767;DHT22;1391;46.74287300;11.63683300;2023-12-07T03:51:51;-2.40;99.90
2767;DHT22;1391;46.74287300;11.63683300;2023-12-07T03:54:18;-2.30;99.90
2767;DHT22;1391;46.74287300;11.63683300;2023-12-07T03:56:45;-2.80;99.90
2767;DHT22;1391;46.74287300;11.63683300;2023-12-07T03:59:13;-2.60;99.90
2767;DHT22;1391;46.74287300;11.63683300;2023-12-07T04:01:40;-2.60;99.90
2767;DHT22;1391;46.74287300;11.63683300;2023-12-07T04:04:08;-2.60;99.90
2767;DHT22;1391;46.74287300;11.63683300;2023-12-07T04:06:35;-2.50;99.90
2767;DHT22;1391;46.74287300;11.63683300;2023-12-07T04:09:05;-2.60;99.90
2767;DHT22;1391;46.74287300;11.63683300;2023-12-07T04:11:33;-2.40;99.90
2767;DHT22;1391;46.74287300;11.63683300;2023-12-07T04:14:00;-2.90;99.90
2767;DHT22;1391;46.74287300;11.63683300;2023-12-07T04:16:28;-2.70;99.90
2767;DHT22;1391;46.74287300;11.63683300;2023-12-07T04:18:55;-2.60;99.90
2767;DHT22;1391;46.74287300;11.63683300;2023-12-07T04:21:22;-2.60;99.90
2767;DHT22;1391;46.74287300;11.63683300;2023-12-07T04:23:50;-2.50;99.90
2767;DHT22;1391;46.74287300;11.63683300;2023-12-07T04:26:18;-2.60;99.90
2767;DHT22;1391;46.74287300;11.63683300;2023-12-07T04:28:46;-2.60;99.90
2767;DHT22;1391;46.74287300;11.63683300;2023-12-07T04:31:13;-2.60;99.90
2767;DHT22;1391;46.74287300;11.63683300;2023-12-07T04:33:41;-3.10;99.90
2767;DHT22;1391;46.74287300;11.63683300;2023-12-07T04:36:09;-2.90;99.90
2767;DHT22;1391;46.74287300;11.63683300;2023-12-07T04:38:37;-2.70;99.90
2767;DHT22;1391;46.74287300;11.63683300;2023-12-07T04:41:04;-3.00;99.90
2767;DHT22;1391;46.74287300;11.63683300;2023-12-07T04:43:33;-2.60;99.90
2767;DHT22;1391;46.74287300;11.63683300;2023-12-07T04:46:00;-3.00;99.90
2767;DHT22;1391;46.74287300;11.63683300;2023-12-07T04:48:28;-2.70;99.90
2767;DHT22;1391;46.74287300;11.63683300;2023-12-07T04:50:56;-2.80;99.90
2767;DHT22;1391;46.74287300;11.63683300;2023-12-07T04:53:24;-2.80;99.90
2767;DHT22;1391;46.74287300;11.63683300;2023-12-07T04:55:51;-3.20;99.90
2767;DHT22;1391;46.74287300;11.63683300;2023-12-07T04:58:19;-2.90;99.90
2767;DHT22;1391;46.74287300;11.63683300;2023-12-07T05:00:47;-2.90;99.90
2767;DHT22;1391;46.74287300;11.63683300;2023-12-07T05:03:15;-2.80;99.90
2767;DHT22;1391;46.74287300;11.63683300;2023-12-07T05:05:43;-2.70;99.90
2767;DHT22;1391;46.74287300;11.63683300;2023-12-07T05:08:15;-2.90;99.90
2767;DHT22;1391;46.74287300;11.63683300;2023-12-07T05:10:51;-3.10;99.90
2767;DHT22;1391;46.74287300;11.63683300;2023-12-07T05:13:25;-3.10;99.90
2767;DHT22;1391;46.74287300;11.63683300;2023-12-07T05:15:55;-3.00;99.90
2767;DHT22;1391;46.74287300;11.63683300;2023-12-07T05:18:23;-3.20;99.90
2767;DHT22;1391;46.74287300;11.63683300;2023-12-07T05:20:50;-2.90;99.90
2767;DHT22;1391;46.74287300;11.63683300;2023-12-07T05:23:18;-2.90;99.90
2767;DHT22;1391;46.74287300;11.63683300;2023-12-07T05:25:46;-3.00;99.90
2767;DHT22;1391;46.74287300;11.63683300;2023-12-07T05:28:13;-2.60;99.90
2767;DHT22;1391;46.74287300;11.63683300;2023-12-07T05:30:41;-3.10;99.90
2767;DHT22;1391;46.74287300;11.63683300;2023-12-07T05:33:09;-3.00;99.90
2767;DHT22;1391;46.74287300;11.63683300;2023-12-07T05:35:37;-3.20;99.90
2767;DHT22;1391;46.74287300;11.63683300;2023-12-07T05:38:04;-3.10;99.90
2767;DHT22;1391;46.74287300;11.63683300;2023-12-07T05:40:32;-3.00;99.90
2767;DHT22;1391;46.74287300;11.63683300;2023-12-07T05:42:59;-3.20;99.90
2767;DHT22;1391;46.74287300;11.63683300;2023-12-07T05:45:27;-2.90;99.90
2767;DHT22;1391;46.74287300;11.63683300;2023-12-07T05:47:54;-2.80;99.90
2767;DHT22;1391;46.74287300;11.63683300;2023-12-07T05:50:24;-2.60;99.90
2767;DHT22;1391;46.74287300;11.63683300;2023-12-07T05:52:53;-3.20;99.90
2767;DHT22;1391;46.74287300;11.63683300;2023-12-07T05:55:21;-3.20;99.90
2767;DHT22;1391;46.74287300;11.63683300;2023-12-07T05:57:48;-3.10;99.90
2767;DHT22;1391;46.74287300;11.63683300;2023-12-07T06:00:16;-2.90;99.90
2767;DHT22;1391;46.74287300;11.63683300;2023-12-07T06:02:44;-2.90;99.90
2767;DHT22;1391;46.74287300;11.63683300;2023-12-07T06:05:12;-2.90;99.90
2767;DHT22;1391;46.74287300;11.63683300;2023-12-07T06:07:41;-3.00;99.90
2767;DHT22;1391;46.74287300;11.63683300;2023-12-07T06:10:11;-2.80;99.90
2767;DHT22;1391;46.74287300;11.63683300;2023-12-07T06:12:39;-2.60;99.90
2767;DHT22;1391;46.74287300;11.63683300;2023-12-07T06:15:07;-3.20;99.90
2767;DHT22;1391;46.74287300;11.63683300;2023-12-07T06:17:35;-3.10;99.90
2767;DHT22;1391;46.74287300;11.63683300;2023-12-07T06:20:04;-3.00;99.90
2767;DHT22;1391;46.74287300;11.63683300;2023-12-07T06:22:35;-3.20;99.90
2767;DHT22;1391;46.74287300;11.63683300;2023-12-07T06:25:07;-3.10;99.90
2767;DHT22;1391;46.74287300;11.63683300;2023-12-07T06:27:35;-3.00;99.90
2767;DHT22;1391;46.74287300;11.63683300;2023-12-07T06:30:03;-3.20;99.90
2767;DHT22;1391;46.74287300;11.63683300;2023-12-07T06:32:32;-3.10;99.90
2767;DHT22;1391;46.74287300;11.63683300;2023-12-07T06:35:02;-2.90;99.90
2767;DHT22;1391;46.74287300;11.63683300;2023-12-07T06:37:30;-3.10;99.90
2767;DHT22;1391;46.74287300;11.63683300;2023-12-07T06:39:57;-2.90;99.90
2767;DHT22;1391;46.74287300;11.63683300;2023-12-07T06:42:27;-3.00;99.90
2767;DHT22;1391;46.74287300;11.63683300;2023-12-07T06:44:54;-3.20;99.90
2767;DHT22;1391;46.74287300;11.63683300;2023-12-07T06:47:22;-3.20;99.90
2767;DHT22;1391;46.74287300;11.63683300;2023-12-07T06:49:49;-3.10;99.90
2767;DHT22;1391;46.74287300;11.63683300;2023-12-07T06:52:17;-2.90;99.90
2767;DHT22;1391;46.74287300;11.63683300;2023-12-07T06:54:44;-2.70;99.90
2767;DHT22;1391;46.74287300;11.63683300;2023-12-07T06:57:11;-2.70;99.90
2767;DHT22;1391;46.74287300;11.63683300;2023-12-07T06:59:40;-2.90;99.90
2767;DHT22;1391;46.74287300;11.63683300;2023-12-07T07:02:08;-2.90;99.90
2767;DHT22;1391;46.74287300;11.63683300;2023-12-07T07:04:35;-3.10;99.90
2767;DHT22;1391;46.74287300;11.63683300;2023-12-07T07:07:03;-2.90;99.90
2767;DHT22;1391;46.74287300;11.63683300;2023-12-07T07:09:30;-2.80;99.90
2767;DHT22;1391;46.74287300;11.63683300;2023-12-07T07:11:58;-2.70;99.90
2767;DHT22;1391;46.74287300;11.63683300;2023-12-07T07:14:25;-2.60;99.90
2767;DHT22;1391;46.74287300;11.63683300;2023-12-07T07:16:54;-2.60;99.90
2767;DHT22;1391;46.74287300;11.63683300;2023-12-07T07:19:21;-3.20;99.90
2767;DHT22;1391;46.74287300;11.63683300;2023-12-07T07:21:49;-2.90;99.90
2767;DHT22;1391;46.74287300;11.63683300;2023-12-07T07:24:16;-2.70;99.90
2767;DHT22;1391;46.74287300;11.63683300;2023-12-07T07:26:43;-2.60;99.90
2767;DHT22;1391;46.74287300;11.63683300;2023-12-07T07:29:13;-2.50;99.90
2767;DHT22;1391;46.74287300;11.63683300;2023-12-07T07:31:40;-2.60;99.90
2767;DHT22;1391;46.74287300;11.63683300;2023-12-07T07:34:09;-2.50;99.90
2767;DHT22;1391;46.74287300;11.63683300;2023-12-07T07:36:36;-2.60;99.90
2767;DHT22;1391;46.74287300;11.63683300;2023-12-07T07:39:04;-3.20;99.90
2767;DHT22;1391;46.74287300;11.63683300;2023-12-07T07:41:34;-3.10;99.90
2767;DHT22;1391;46.74287300;11.63683300;2023-12-07T07:44:02;-3.00;99.90
2767;DHT22;1391;46.74287300;11.63683300;2023-12-07T07:46:29;-3.20;99.90
2767;DHT22;1391;46.74287300;11.63683300;2023-12-07T07:48:57;-3.20;99.90
2767;DHT22;1391;46.74287300;11.63683300;2023-12-07T07:51:25;-3.10;99.90
2767;DHT22;1391;46.74287300;11.63683300;2023-12-07T07:53:53;-2.90;99.90
2767;DHT22;1391;46.74287300;11.63683300;2023-12-07T07:56:20;-3.00;99.90
2767;DHT22;1391;46.74287300;11.63683300;2023-12-07T07:58:48;-3.30;99.90
2767;DHT22;1391;46.74287300;11.63683300;2023-12-07T08:01:15;-3.20;99.90
2767;DHT22;1391;46.74287300;11.63683300;2023-12-07T08:03:43;-3.20;99.90
2767;DHT22;1391;46.74287300;11.63683300;2023-12-07T08:06:10;-3.10;99.90
2767;DHT22;1391;46.74287300;11.63683300;2023-12-07T08:08:39;-2.90;99.90
2767;DHT22;1391;46.74287300;11.63683300;2023-12-07T08:11:06;-2.50;99.90
2767;DHT22;1391;46.74287300;11.63683300;2023-12-07T08:13:34;-1.80;99.90
2767;DHT22;1391;46.74287300;11.63683300;2023-12-07T08:16:01;-1.80;99.90
2767;DHT22;1391;46.74287300;11.63683300;2023-12-07T08:18:28;-1.20;99.90
2767;DHT22;1391;46.74287300;11.63683300;2023-12-07T08:20:56;-0.90;99.90
2767;DHT22;1391;46.74287300;11.63683300;2023-12-07T08:23:24;-0.40;99.90
2767;DHT22;1391;46.74287300;11.63683300;2023-12-07T08:25:52;-0.20;99.90
2767;DHT22;1391;46.74287300;11.63683300;2023-12-07T08:28:22;-0.50;99.90
2767;DHT22;1391;46.74287300;11.63683300;2023-12-07T08:30:50;-0.10;99.90
2767;DHT22;1391;46.74287300;11.63683300;2023-12-07T08:33:17;0.10;99.90
2767;DHT22;1391;46.74287300;11.63683300;2023-12-07T08:35:44;1.10;99.90
2767;DHT22;1391;46.74287300;11.63683300;2023-12-07T08:38:12;1.10;99.90
2767;DHT22;1391;46.74287300;11.63683300;2023-12-07T08:40:40;1.60;99.90
2767;DHT22;1391;46.74287300;11.63683300;2023-12-07T08:43:09;1.70;92.20
2767;DHT22;1391;46.74287300;11.63683300;2023-12-07T08:45:37;1.60;91.70
2767;DHT22;1391;46.74287300;11.63683300;2023-12-07T08:48:05;1.90;91.20
2767;DHT22;1391;46.74287300;11.63683300;2023-12-07T08:50:32;1.80;88.20
2767;DHT22;1391;46.74287300;11.63683300;2023-12-07T08:53:00;1.90;84.00
2767;DHT22;1391;46.74287300;11.63683300;2023-12-07T08:55:27;1.80;82.50
2767;DHT22;1391;46.74287300;11.63683300;2023-12-07T08:57:55;1.90;82.80
2767;DHT22;1391;46.74287300;11.63683300;2023-12-07T09:00:24;1.80;82.70
2767;DHT22;1391;46.74287300;11.63683300;2023-12-07T09:02:51;1.80;81.90
2767;DHT22;1391;46.74287300;11.63683300;2023-12-07T09:05:18;2.20;77.00
2767;DHT22;1391;46.74287300;11.63683300;2023-12-07T09:07:46;2.10;76.90
2767;DHT22;1391;46.74287300;11.63683300;2023-12-07T09:10:13;2.40;77.40
2767;DHT22;1391;46.74287300;11.63683300;2023-12-07T09:12:40;2.50;71.10
2767;DHT22;1391;46.74287300;11.63683300;2023-12-07T09:15:09;2.50;67.80
2767;DHT22;1391;46.74287300;11.63683300;2023-12-07T09:17:38;2.30;66.10
2767;DHT22;1391;46.74287300;11.63683300;2023-12-07T09:20:06;2.40;65.80
2767;DHT22;1391;46.74287300;11.63683300;2023-12-07T09:22:37;2.60;62.50
2767;DHT22;1391;46.74287300;11.63683300;2023-12-07T09:25:07;2.80;62.10
2767;DHT22;1391;46.74287300;11.63683300;2023-12-07T09:27:36;3.10;61.20
2767;DHT22;1391;46.74287300;11.63683300;2023-12-07T09:30:05;3.40;58.90
2767;DHT22;1391;46.74287300;11.63683300;2023-12-07T09:32:37;3.00;56.00
2767;DHT22;1391;46.74287300;11.63683300;2023-12-07T09:35:06;3.70;54.80
2767;DHT22;1391;46.74287300;11.63683300;2023-12-07T09:37:34;3.30;54.30
2767;DHT22;1391;46.74287300;11.63683300;2023-12-07T09:40:01;4.00;53.70
2767;DHT22;1391;46.74287300;11.63683300;2023-12-07T09:42:31;3.70;52.10
2767;DHT22;1391;46.74287300;11.63683300;2023-12-07T09:44:58;3.50;52.60
2767;DHT22;1391;46.74287300;11.63683300;2023-12-07T09:47:27;3.30;49.70
2767;DHT22;1391;46.74287300;11.63683300;2023-12-07T09:49:57;3.40;45.10
2767;DHT22;1391;46.74287300;11.63683300;2023-12-07T09:52:24;3.50;46.20
2767;DHT22;1391;46.74287300;11.63683300;2023-12-07T09:54:52;3.60;40.70
2767;DHT22;1391;46.74287300;11.63683300;2023-12-07T09:57:22;3.70;44.50
2767;DHT22;1391;46.74287300;11.63683300;2023-12-07T09:59:49;3.60;36.40
2767;DHT22;1391;46.74287300;11.63683300;2023-12-07T10:02:17;3.40;38.70
2767;DHT22;1391;46.74287300;11.63683300;2023-12-07T10:04:44;3.40;39.10
2767;DHT22;1391;46.74287300;11.63683300;2023-12-07T10:07:13;3.50;40.90
2767;DHT22;1391;46.74287300;11.63683300;2023-12-07T10:09:40;3.20;45.50
2767;DHT22;1391;46.74287300;11.63683300;2023-12-07T10:12:08;3.50;47.70
2767;DHT22;1391;46.74287300;11.63683300;2023-12-07T10:14:36;3.40;47.20
2767;DHT22;1391;46.74287300;11.63683300;2023-12-07T10:17:05;3.20;46.70
2767;DHT22;1391;46.74287300;11.63683300;2023-12-07T10:19:32;3.20;48.30
2767;DHT22;1391;46.74287300;11.63683300;2023-12-07T10:21:59;3.20;48.60
2767;DHT22;1391;46.74287300;11.63683300;2023-12-07T10:24:28;3.40;44.50
2767;DHT22;1391;46.74287300;11.63683300;2023-12-07T10:26:56;3.20;40.70
2767;DHT22;1391;46.74287300;11.63683300;2023-12-07T10:29:24;3.50;40.10
2767;DHT22;1391;46.74287300;11.63683300;2023-12-07T10:32:00;3.90;41.00
2767;DHT22;1391;46.74287300;11.63683300;2023-12-07T10:34:28;3.80;44.40
2767;DHT22;1391;46.74287300;11.63683300;2023-12-07T10:36:57;4.30;41.00
2767;DHT22;1391;46.74287300;11.63683300;2023-12-07T10:39:24;4.60;39.50
2767;DHT22;1391;46.74287300;11.63683300;2023-12-07T10:41:56;4.50;35.80
2767;DHT22;1391;46.74287300;11.63683300;2023-12-07T10:44:29;4.60;34.10
2767;DHT22;1391;46.74287300;11.63683300;2023-12-07T10:46:58;4.70;32.50
2767;DHT22;1391;46.74287300;11.63683300;2023-12-07T10:49:27;4.40;28.60
2767;DHT22;1391;46.74287300;11.63683300;2023-12-07T10:51:58;4.60;27.70
2767;DHT22;1391;46.74287300;11.63683300;2023-12-07T10:54:33;4.00;27.90
2767;DHT22;1391;46.74287300;11.63683300;2023-12-07T10:57:10;4.60;27.50
2767;DHT22;1391;46.74287300;11.63683300;2023-12-07T10:59:42;4.40;27.10
2767;DHT22;1391;46.74287300;11.63683300;2023-12-07T11:02:13;4.60;26.90
2767;DHT22;1391;46.74287300;11.63683300;2023-12-07T11:04:41;4.60;26.90
2767;DHT22;1391;46.74287300;11.63683300;2023-12-07T11:07:12;4.60;25.30
2767;DHT22;1391;46.74287300;11.63683300;2023-12-07T11:09:47;4.40;24.30
2767;DHT22;1391;46.74287300;11.63683300;2023-12-07T11:12:28;4.70;24.20
2767;DHT22;1391;46.74287300;11.63683300;2023-12-07T11:14:58;4.60;22.80
2767;DHT22;1391;46.74287300;11.63683300;2023-12-07T11:17:27;4.70;22.80
2767;DHT22;1391;46.74287300;11.63683300;2023-12-07T11:19:55;4.50;22.50
2767;DHT22;1391;46.74287300;11.63683300;2023-12-07T11:22:23;4.50;22.20
2767;DHT22;1391;46.74287300;11.63683300;2023-12-07T11:24:53;5.00;22.90
2767;DHT22;1391;46.74287300;11.63683300;2023-12-07T11:27:24;5.10;22.20
2767;DHT22;1391;46.74287300;11.63683300;2023-12-07T11:29:52;5.20;22.00
2767;DHT22;1391;46.74287300;11.63683300;2023-12-07T11:32:20;5.00;20.90
2767;DHT22;1391;46.74287300;11.63683300;2023-12-07T11:34:47;5.00;20.80
2767;DHT22;1391;46.74287300;11.63683300;2023-12-07T11:37:15;5.00;20.50
2767;DHT22;1391;46.74287300;11.63683300;2023-12-07T11:39:43;4.90;20.10
2767;DHT22;1391;46.74287300;11.63683300;2023-12-07T11:42:14;5.00;21.20
2767;DHT22;1391;46.74287300;11.63683300;2023-12-07T11:44:48;4.70;20.70
2767;DHT22;1391;46.74287300;11.63683300;2023-12-07T11:47:17;4.60;21.40
2767;DHT22;1391;46.74287300;11.63683300;2023-12-07T11:49:45;4.30;21.90
2767;DHT22;1391;46.74287300;11.63683300;2023-12-07T11:52:13;4.60;22.30
2767;DHT22;1391;46.74287300;11.63683300;2023-12-07T11:54:43;4.60;21.70
2767;DHT22;1391;46.74287300;11.63683300;2023-12-07T11:57:11;4.60;21.60
2767;DHT22;1391;46.74287300;11.63683300;2023-12-07T11:59:40;4.20;21.20
2767;DHT22;1391;46.74287300;11.63683300;2023-12-07T12:02:12;4.30;22.10
2767;DHT22;1391;46.74287300;11.63683300;2023-12-07T12:04:40;4.10;21.20
2767;DHT22;1391;46.74287300;11.63683300;2023-12-07T12:07:07;4.30;21.80
2767;DHT22;1391;46.74287300;11.63683300;2023-12-07T12:09:35;4.20;21.00
2767;DHT22;1391;46.74287300;11.63683300;2023-12-07T12:12:02;3.90;21.50
2767;DHT22;1391;46.74287300;11.63683300;2023-12-07T12:14:30;4.10;21.30
2767;DHT22;1391;46.74287300;11.63683300;2023-12-07T12:16:57;3.60;21.40
2767;DHT22;1391;46.74287300;11.63683300;2023-12-07T12:19:26;3.90;21.70
2767;DHT22;1391;46.74287300;11.63683300;2023-12-07T12:21:54;3.50;21.80
2767;DHT22;1391;46.74287300;11.63683300;2023-12-07T12:24:22;3.50;23.60
2767;DHT22;1391;46.74287300;11.63683300;2023-12-07T12:26:50;3.30;22.60
2767;DHT22;1391;46.74287300;11.63683300;2023-12-07T12:29:18;3.10;24.70
2767;DHT22;1391;46.74287300;11.63683300;2023-12-07T12:31:45;2.90;24.60
2767;DHT22;1391;46.74287300;11.63683300;2023-12-07T12:34:12;3.10;26.10
2767;DHT22;1391;46.74287300;11.63683300;2023-12-07T12:36:41;2.60;24.80
2767;DHT22;1391;46.74287300;11.63683300;2023-12-07T12:39:08;2.60;23.40
2767;DHT22;1391;46.74287300;11.63683300;2023-12-07T12:41:36;2.70;24.50
2767;DHT22;1391;46.74287300;11.63683300;2023-12-07T12:44:04;2.60;25.30
2767;DHT22;1391;46.74287300;11.63683300;2023-12-07T12:46:34;2.50;24.20
2767;DHT22;1391;46.74287300;11.63683300;2023-12-07T12:49:03;2.60;26.00
2767;DHT22;1391;46.74287300;11.63683300;2023-12-07T12:51:30;2.30;24.20
2767;DHT22;1391;46.74287300;11.63683300;2023-12-07T12:54:00;2.50;23.40
2767;DHT22;1391;46.74287300;11.63683300;2023-12-07T12:56:27;2.70;24.00
2767;DHT22;1391;46.74287300;11.63683300;2023-12-07T12:58:55;2.70;24.20
2767;DHT22;1391;46.74287300;11.63683300;2023-12-07T13:01:23;2.60;23.00
2767;DHT22;1391;46.74287300;11.63683300;2023-12-07T13:03:50;2.50;23.10
2767;DHT22;1391;46.74287300;11.63683300;2023-12-07T13:06:20;2.20;22.90
2767;DHT22;1391;46.74287300;11.63683300;2023-12-07T13:08:48;2.20;23.30
2767;DHT22;1391;46.74287300;11.63683300;2023-12-07T13:11:18;2.10;23.60
2767;DHT22;1391;46.74287300;11.63683300;2023-12-07T13:13:46;2.20;23.20
2767;DHT22;1391;46.74287300;11.63683300;2023-12-07T13:16:14;2.20;23.20
2767;DHT22;1391;46.74287300;11.63683300;2023-12-07T13:18:42;2.20;25.50
2767;DHT22;1391;46.74287300;11.63683300;2023-12-07T13:21:09;2.20;25.60
2767;DHT22;1391;46.74287300;11.63683300;2023-12-07T13:23:37;2.30;25.50
2767;DHT22;1391;46.74287300;11.63683300;2023-12-07T13:26:05;2.20;26.50
2767;DHT22;1391;46.74287300;11.63683300;2023-12-07T13:28:34;2.00;25.00
2767;DHT22;1391;46.74287300;11.63683300;2023-12-07T13:31:02;2.10;26.50
2767;DHT22;1391;46.74287300;11.63683300;2023-12-07T13:33:30;2.20;24.60
2767;DHT22;1391;46.74287300;11.63683300;2023-12-07T13:35:57;2.20;23.70
2767;DHT22;1391;46.74287300;11.63683300;2023-12-07T13:38:27;2.10;24.90
2767;DHT22;1391;46.74287300;11.63683300;2023-12-07T13:40:55;2.00;25.60
2767;DHT22;1391;46.74287300;11.63683300;2023-12-07T13:43:23;2.10;22.40
2767;DHT22;1391;46.74287300;11.63683300;2023-12-07T13:45:52;2.00;22.80
2767;DHT22;1391;46.74287300;11.63683300;2023-12-07T13:48:19;2.10;25.40
2767;DHT22;1391;46.74287300;11.63683300;2023-12-07T13:50:47;1.90;24.30
2767;DHT22;1391;46.74287300;11.63683300;2023-12-07T13:53:16;2.20;26.00
2767;DHT22;1391;46.74287300;11.63683300;2023-12-07T13:55:45;2.00;25.50
2767;DHT22;1391;46.74287300;11.63683300;2023-12-07T13:58:12;1.80;24.80
2767;DHT22;1391;46.74287300;11.63683300;2023-12-07T14:00:39;2.20;24.00
2767;DHT22;1391;46.74287300;11.63683300;2023-12-07T14:03:12;2.30;24.50
2767;DHT22;1391;46.74287300;11.63683300;2023-12-07T14:05:39;1.90;25.30
2767;DHT22;1391;46.74287300;11.63683300;2023-12-07T14:08:07;1.90;25.00
2767;DHT22;1391;46.74287300;11.63683300;2023-12-07T14:10:35;1.60;26.60
2767;DHT22;1391;46.74287300;11.63683300;2023-12-07T14:13:02;1.60;28.90
2767;DHT22;1391;46.74287300;11.63683300;2023-12-07T14:15:30;1.30;28.40
2767;DHT22;1391;46.74287300;11.63683300;2023-12-07T14:17:59;1.20;31.30
2767;DHT22;1391;46.74287300;11.63683300;2023-12-07T14:20:33;1.20;32.80
2767;DHT22;1391;46.74287300;11.63683300;2023-12-07T14:23:00;1.50;32.90
2767;DHT22;1391;46.74287300;11.63683300;2023-12-07T14:25:30;1.20;32.40
2767;DHT22;1391;46.74287300;11.63683300;2023-12-07T14:27:57;1.30;36.10
2767;DHT22;1391;46.74287300;11.63683300;2023-12-07T14:30:24;0.80;38.30
2767;DHT22;1391;46.74287300;11.63683300;2023-12-07T14:32:52;0.60;37.40
2767;DHT22;1391;46.74287300;11.63683300;2023-12-07T14:35:20;1.00;36.90
2767;DHT22;1391;46.74287300;11.63683300;2023-12-07T14:37:53;1.20;40.00
2767;DHT22;1391;46.74287300;11.63683300;2023-12-07T14:40:20;0.60;38.10
2767;DHT22;1391;46.74287300;11.63683300;2023-12-07T14:42:48;0.50;38.60
2767;DHT22;1391;46.74287300;11.63683300;2023-12-07T14:45:15;0.50;40.50
2767;DHT22;1391;46.74287300;11.63683300;2023-12-07T14:47:46;0.50;40.40
2767;DHT22;1391;46.74287300;11.63683300;2023-12-07T14:50:13;0.70;47.20
2767;DHT22;1391;46.74287300;11.63683300;2023-12-07T14:52:40;0.40;47.50
2767;DHT22;1391;46.74287300;11.63683300;2023-12-07T14:55:09;0.50;48.00
2767;DHT22;1391;46.74287300;11.63683300;2023-12-07T14:57:36;0.50;50.50
2767;DHT22;1391;46.74287300;11.63683300;2023-12-07T15:00:05;0.10;50.60
2767;DHT22;1391;46.74287300;11.63683300;2023-12-07T15:02:33;0.20;50.40
2767;DHT22;1391;46.74287300;11.63683300;2023-12-07T15:05:00;0.30;51.00
2767;DHT22;1391;46.74287300;11.63683300;2023-12-07T15:07:27;0.50;53.60
2767;DHT22;1391;46.74287300;11.63683300;2023-12-07T15:09:54;0.20;48.30
2767;DHT22;1391;46.74287300;11.63683300;2023-12-07T15:12:25;0.30;48.70
2767;DHT22;1391;46.74287300;11.63683300;2023-12-07T15:14:56;0.20;44.10
2767;DHT22;1391;46.74287300;11.63683300;2023-12-07T15:17:23;0.40;44.50
2767;DHT22;1391;46.74287300;11.63683300;2023-12-07T15:19:50;0.50;45.10
2767;DHT22;1391;46.74287300;11.63683300;2023-12-07T15:22:17;-0.10;44.40
2767;DHT22;1391;46.74287300;11.63683300;2023-12-07T15:24:48;-0.40;50.60
2767;DHT22;1391;46.74287300;11.63683300;2023-12-07T15:27:19;-0.10;49.50
2767;DHT22;1391;46.74287300;11.63683300;2023-12-07T15:29:48;0.20;44.30
2767;DHT22;1391;46.74287300;11.63683300;2023-12-07T15:32:15;0.20;42.40
2767;DHT22;1391;46.74287300;11.63683300;2023-12-07T15:34:43;0.20;46.20
2767;DHT22;1391;46.74287300;11.63683300;2023-12-07T15:37:10;-0.10;42.60
2767;DHT22;1391;46.74287300;11.63683300;2023-12-07T15:39:40;-0.10;45.60